sensor_id;sensor_type;location;lat;lon;timestamp;P1;durP1;ratioP1;P2;durP2;ratioP2
28714;SDS011;15886;49.170;14.572;2023-10-31T00:00:26;4.60;;;2.90;;
28714;SDS011;15886;49.170;14.572;2023-10-31T00:03:00;7.95;;;3.13;;
28714;SDS011;15886;49.170;14.572;2023-10-31T00:05:28;8.50;;;3.47;;
28714;SDS011;15886;49.170;14.572;2023-10-31T00:07:59;14.98;;;6.88;;
28714;SDS011;15886;49.170;14.572;2023-10-31T00:10:27;13.88;;;6.93;;
28714;SDS011;15886;49.170;14.572;2023-10-31T00:12:55;5.07;;;3.00;;
28714;SDS011;15886;49.170;14.572;2023-10-31T00:15:24;6.38;;;2.95;;
28714;SDS011;15886;49.170;14.572;2023-10-31T00:17:52;6.10;;;2.83;;
28714;SDS011;15886;49.170;14.572;2023-10-31T00:20:21;4.90;;;2.83;;
28714;SDS011;15886;49.170;14.572;2023-10-31T00:22:49;4.72;;;2.53;;
28714;SDS011;15886;49.170;14.572;2023-10-31T00:25:19;6.03;;;2.70;;
28714;SDS011;15886;49.170;14.572;2023-10-31T00:27:47;8.00;;;3.25;;
28714;SDS011;15886;49.170;14.572;2023-10-31T00:30:15;4.25;;;3.10;;
28714;SDS011;15886;49.170;14.572;2023-10-31T00:32:44;6.35;;;2.80;;
28714;SDS011;15886;49.170;14.572;2023-10-31T00:35:12;11.20;;;3.03;;
28714;SDS011;15886;49.170;14.572;2023-10-31T00:37:41;3.38;;;2.03;;
28714;SDS011;15886;49.170;14.572;2023-10-31T00:40:12;4.03;;;2.42;;
28714;SDS011;15886;49.170;14.572;2023-10-31T00:42:42;3.63;;;2.13;;
28714;SDS011;15886;49.170;14.572;2023-10-31T00:45:13;3.30;;;2.53;;
28714;SDS011;15886;49.170;14.572;2023-10-31T00:47:42;7.50;;;3.45;;
28714;SDS011;15886;49.170;14.572;2023-10-31T00:50:10;3.90;;;2.47;;
28714;SDS011;15886;49.170;14.572;2023-10-31T00:52:38;4.13;;;2.72;;
28714;SDS011;15886;49.170;14.572;2023-10-31T00:55:06;7.45;;;2.90;;
28714;SDS011;15886;49.170;14.572;2023-10-31T00:57:35;7.45;;;3.28;;
28714;SDS011;15886;49.170;14.572;2023-10-31T01:00:03;4.28;;;2.25;;
28714;SDS011;15886;49.170;14.572;2023-10-31T01:02:32;5.72;;;2.72;;
28714;SDS011;15886;49.170;14.572;2023-10-31T01:05:02;3.60;;;2.38;;
28714;SDS011;15886;49.170;14.572;2023-10-31T01:07:30;7.03;;;2.50;;
28714;SDS011;15886;49.170;14.572;2023-10-31T01:09:58;4.53;;;2.72;;
28714;SDS011;15886;49.170;14.572;2023-10-31T01:12:27;4.68;;;2.33;;
28714;SDS011;15886;49.170;14.572;2023-10-31T01:14:55;3.17;;;2.38;;
28714;SDS011;15886;49.170;14.572;2023-10-31T01:17:26;5.22;;;2.28;;
28714;SDS011;15886;49.170;14.572;2023-10-31T01:19:57;3.03;;;2.47;;
28714;SDS011;15886;49.170;14.572;2023-10-31T01:22:27;4.07;;;2.28;;
28714;SDS011;15886;49.170;14.572;2023-10-31T01:24:56;6.60;;;2.55;;
28714;SDS011;15886;49.170;14.572;2023-10-31T01:27:24;7.72;;;3.00;;
28714;SDS011;15886;49.170;14.572;2023-10-31T01:29:52;8.27;;;2.80;;
28714;SDS011;15886;49.170;14.572;2023-10-31T01:32:23;8.50;;;3.10;;
28714;SDS011;15886;49.170;14.572;2023-10-31T01:34:53;9.70;;;3.72;;
28714;SDS011;15886;49.170;14.572;2023-10-31T01:37:21;7.35;;;3.55;;
28714;SDS011;15886;49.170;14.572;2023-10-31T01:39:49;3.55;;;2.55;;
28714;SDS011;15886;49.170;14.572;2023-10-31T01:42:17;11.75;;;3.67;;
28714;SDS011;15886;49.170;14.572;2023-10-31T01:44:47;8.55;;;4.18;;
28714;SDS011;15886;49.170;14.572;2023-10-31T01:49:48;4.75;;;2.42;;
28714;SDS011;15886;49.170;14.572;2023-10-31T01:52:19;4.93;;;2.58;;
28714;SDS011;15886;49.170;14.572;2023-10-31T01:54:47;4.90;;;3.42;;
28714;SDS011;15886;49.170;14.572;2023-10-31T01:57:16;8.77;;;4.22;;
28714;SDS011;15886;49.170;14.572;2023-10-31T01:59:46;8.40;;;4.05;;
28714;SDS011;15886;49.170;14.572;2023-10-31T02:02:15;8.20;;;4.30;;
28714;SDS011;15886;49.170;14.572;2023-10-31T02:04:44;6.55;;;3.70;;
28714;SDS011;15886;49.170;14.572;2023-10-31T02:07:15;9.80;;;3.92;;
28714;SDS011;15886;49.170;14.572;2023-10-31T02:09:45;7.63;;;4.53;;
28714;SDS011;15886;49.170;14.572;2023-10-31T02:12:33;6.95;;;4.63;;
28714;SDS011;15886;49.170;14.572;2023-10-31T02:15:02;7.88;;;4.60;;
28714;SDS011;15886;49.170;14.572;2023-10-31T02:17:31;8.57;;;4.70;;
28714;SDS011;15886;49.170;14.572;2023-10-31T02:20:01;9.43;;;6.00;;
28714;SDS011;15886;49.170;14.572;2023-10-31T02:22:29;8.00;;;5.03;;
28714;SDS011;15886;49.170;14.572;2023-10-31T02:24:57;12.25;;;5.70;;
28714;SDS011;15886;49.170;14.572;2023-10-31T02:27:25;6.82;;;4.82;;
28714;SDS011;15886;49.170;14.572;2023-10-31T02:29:53;8.75;;;4.95;;
28714;SDS011;15886;49.170;14.572;2023-10-31T02:32:22;5.68;;;4.18;;
28714;SDS011;15886;49.170;14.572;2023-10-31T02:34:50;4.47;;;3.45;;
28714;SDS011;15886;49.170;14.572;2023-10-31T02:37:18;6.00;;;4.00;;
28714;SDS011;15886;49.170;14.572;2023-10-31T02:39:47;5.50;;;3.53;;
28714;SDS011;15886;49.170;14.572;2023-10-31T02:42:15;3.65;;;2.88;;
28714;SDS011;15886;49.170;14.572;2023-10-31T02:44:44;4.72;;;2.72;;
28714;SDS011;15886;49.170;14.572;2023-10-31T02:47:16;5.07;;;2.70;;
28714;SDS011;15886;49.170;14.572;2023-10-31T02:49:44;3.22;;;2.25;;
28714;SDS011;15886;49.170;14.572;2023-10-31T02:52:13;3.33;;;1.85;;
28714;SDS011;15886;49.170;14.572;2023-10-31T02:54:41;2.28;;;1.60;;
28714;SDS011;15886;49.170;14.572;2023-10-31T02:57:09;2.58;;;1.48;;
28714;SDS011;15886;49.170;14.572;2023-10-31T02:59:37;2.35;;;1.08;;
28714;SDS011;15886;49.170;14.572;2023-10-31T03:02:06;1.65;;;0.90;;
28714;SDS011;15886;49.170;14.572;2023-10-31T03:04:34;1.08;;;0.60;;
28714;SDS011;15886;49.170;14.572;2023-10-31T03:07:03;1.50;;;1.00;;
28714;SDS011;15886;49.170;14.572;2023-10-31T03:09:33;1.55;;;0.77;;
28714;SDS011;15886;49.170;14.572;2023-10-31T03:12:04;0.80;;;0.68;;
28714;SDS011;15886;49.170;14.572;2023-10-31T03:14:32;1.63;;;0.82;;
28714;SDS011;15886;49.170;14.572;2023-10-31T03:17:00;0.70;;;0.50;;
28714;SDS011;15886;49.170;14.572;2023-10-31T03:19:29;0.70;;;0.63;;
28714;SDS011;15886;49.170;14.572;2023-10-31T03:21:57;0.75;;;0.65;;
28714;SDS011;15886;49.170;14.572;2023-10-31T03:24:25;0.70;;;0.52;;
28714;SDS011;15886;49.170;14.572;2023-10-31T03:26:53;0.57;;;0.50;;
28714;SDS011;15886;49.170;14.572;2023-10-31T03:29:22;0.90;;;0.60;;
28714;SDS011;15886;49.170;14.572;2023-10-31T03:31:56;0.93;;;0.70;;
28714;SDS011;15886;49.170;14.572;2023-10-31T03:37:00;0.70;;;0.50;;
28714;SDS011;15886;49.170;14.572;2023-10-31T03:39:28;1.25;;;0.52;;
28714;SDS011;15886;49.170;14.572;2023-10-31T03:41:58;3.80;;;0.90;;
28714;SDS011;15886;49.170;14.572;2023-10-31T03:44:28;0.98;;;0.70;;
28714;SDS011;15886;49.170;14.572;2023-10-31T03:46:56;1.08;;;0.50;;
28714;SDS011;15886;49.170;14.572;2023-10-31T03:49:26;0.70;;;0.60;;
28714;SDS011;15886;49.170;14.572;2023-10-31T03:51:56;0.60;;;0.60;;
28714;SDS011;15886;49.170;14.572;2023-10-31T03:54:24;1.45;;;0.90;;
28714;SDS011;15886;49.170;14.572;2023-10-31T03:56:53;0.80;;;0.70;;
28714;SDS011;15886;49.170;14.572;2023-10-31T03:59:22;0.80;;;0.70;;
28714;SDS011;15886;49.170;14.572;2023-10-31T04:01:50;2.08;;;0.70;;
28714;SDS011;15886;49.170;14.572;2023-10-31T04:04:18;1.05;;;0.70;;
28714;SDS011;15886;49.170;14.572;2023-10-31T04:06:47;1.63;;;0.93;;
28714;SDS011;15886;49.170;14.572;2023-10-31T04:09:17;2.05;;;1.10;;
28714;SDS011;15886;49.170;14.572;2023-10-31T04:11:46;1.17;;;0.82;;
28714;SDS011;15886;49.170;14.572;2023-10-31T04:14:15;10.05;;;1.20;;
28714;SDS011;15886;49.170;14.572;2023-10-31T04:16:44;1.58;;;1.33;;
28714;SDS011;15886;49.170;14.572;2023-10-31T04:19:13;3.15;;;1.20;;
28714;SDS011;15886;49.170;14.572;2023-10-31T04:21:43;5.03;;;1.05;;
28714;SDS011;15886;49.170;14.572;2023-10-31T04:24:12;1.75;;;0.98;;
28714;SDS011;15886;49.170;14.572;2023-10-31T04:26:43;2.08;;;1.33;;
28714;SDS011;15886;49.170;14.572;2023-10-31T04:29:13;1.80;;;1.05;;
28714;SDS011;15886;49.170;14.572;2023-10-31T04:31:42;2.03;;;1.10;;
28714;SDS011;15886;49.170;14.572;2023-10-31T04:34:11;1.33;;;0.88;;
28714;SDS011;15886;49.170;14.572;2023-10-31T04:36:40;1.00;;;0.80;;
28714;SDS011;15886;49.170;14.572;2023-10-31T04:39:08;1.08;;;0.98;;
28714;SDS011;15886;49.170;14.572;2023-10-31T04:41:36;4.63;;;1.17;;
28714;SDS011;15886;49.170;14.572;2023-10-31T04:44:05;1.50;;;1.33;;
28714;SDS011;15886;49.170;14.572;2023-10-31T04:46:33;2.08;;;1.27;;
28714;SDS011;15886;49.170;14.572;2023-10-31T04:49:03;2.13;;;1.45;;
28714;SDS011;15886;49.170;14.572;2023-10-31T04:51:35;1.70;;;1.50;;
28714;SDS011;15886;49.170;14.572;2023-10-31T04:54:04;2.25;;;1.60;;
28714;SDS011;15886;49.170;14.572;2023-10-31T04:56:33;3.63;;;1.83;;
28714;SDS011;15886;49.170;14.572;2023-10-31T04:59:01;5.50;;;2.15;;
28714;SDS011;15886;49.170;14.572;2023-10-31T05:01:31;4.43;;;2.30;;
28714;SDS011;15886;49.170;14.572;2023-10-31T05:04:02;3.72;;;2.08;;
28714;SDS011;15886;49.170;14.572;2023-10-31T05:06:32;9.52;;;2.58;;
28714;SDS011;15886;49.170;14.572;2023-10-31T05:09:00;5.05;;;3.10;;
28714;SDS011;15886;49.170;14.572;2023-10-31T05:11:29;5.60;;;2.92;;
28714;SDS011;15886;49.170;14.572;2023-10-31T05:13:57;8.27;;;2.75;;
28714;SDS011;15886;49.170;14.572;2023-10-31T05:16:26;5.03;;;2.90;;
28714;SDS011;15886;49.170;14.572;2023-10-31T05:18:56;4.47;;;2.72;;
28714;SDS011;15886;49.170;14.572;2023-10-31T05:21:30;4.55;;;2.40;;
28714;SDS011;15886;49.170;14.572;2023-10-31T05:23:58;4.53;;;2.15;;
28714;SDS011;15886;49.170;14.572;2023-10-31T05:26:28;3.38;;;2.28;;
28714;SDS011;15886;49.170;14.572;2023-10-31T05:31:29;13.40;;;3.38;;
28714;SDS011;15886;49.170;14.572;2023-10-31T05:33:59;4.60;;;2.97;;
28714;SDS011;15886;49.170;14.572;2023-10-31T05:36:27;5.53;;;3.28;;
28714;SDS011;15886;49.170;14.572;2023-10-31T05:38:56;3.30;;;1.90;;
28714;SDS011;15886;49.170;14.572;2023-10-31T05:44:26;2.30;;;1.70;;
28714;SDS011;15886;49.170;14.572;2023-10-31T05:46:54;3.50;;;1.60;;
28714;SDS011;15886;49.170;14.572;2023-10-31T05:49:22;4.85;;;1.60;;
28714;SDS011;15886;49.170;14.572;2023-10-31T05:51:51;3.70;;;1.80;;
28714;SDS011;15886;49.170;14.572;2023-10-31T05:54:20;4.10;;;2.38;;
28714;SDS011;15886;49.170;14.572;2023-10-31T05:56:49;2.38;;;1.75;;
28714;SDS011;15886;49.170;14.572;2023-10-31T05:59:17;3.88;;;2.80;;
28714;SDS011;15886;49.170;14.572;2023-10-31T06:01:45;4.53;;;3.00;;
28714;SDS011;15886;49.170;14.572;2023-10-31T06:04:15;6.50;;;3.90;;
28714;SDS011;15886;49.170;14.572;2023-10-31T06:06:43;6.55;;;3.90;;
28714;SDS011;15886;49.170;14.572;2023-10-31T06:09:11;3.88;;;2.72;;
28714;SDS011;15886;49.170;14.572;2023-10-31T06:11:43;2.10;;;1.52;;
28714;SDS011;15886;49.170;14.572;2023-10-31T06:14:11;2.30;;;1.58;;
28714;SDS011;15886;49.170;14.572;2023-10-31T06:16:44;2.78;;;1.42;;
28714;SDS011;15886;49.170;14.572;2023-10-31T06:19:12;6.68;;;4.10;;
28714;SDS011;15886;49.170;14.572;2023-10-31T06:21:40;7.75;;;5.00;;
28714;SDS011;15886;49.170;14.572;2023-10-31T06:24:09;5.07;;;3.38;;
28714;SDS011;15886;49.170;14.572;2023-10-31T06:26:37;3.22;;;2.15;;
28714;SDS011;15886;49.170;14.572;2023-10-31T06:29:08;2.47;;;1.70;;
28714;SDS011;15886;49.170;14.572;2023-10-31T06:31:43;1.73;;;1.40;;
28714;SDS011;15886;49.170;14.572;2023-10-31T06:34:15;3.92;;;2.20;;
28714;SDS011;15886;49.170;14.572;2023-10-31T06:36:43;6.60;;;1.20;;
28714;SDS011;15886;49.170;14.572;2023-10-31T06:39:11;1.65;;;1.15;;
28714;SDS011;15886;49.170;14.572;2023-10-31T06:41:40;2.42;;;1.20;;
28714;SDS011;15886;49.170;14.572;2023-10-31T06:44:09;1.98;;;0.95;;
28714;SDS011;15886;49.170;14.572;2023-10-31T06:46:37;2.03;;;1.30;;
28714;SDS011;15886;49.170;14.572;2023-10-31T06:49:05;1.80;;;1.08;;
28714;SDS011;15886;49.170;14.572;2023-10-31T06:51:35;1.50;;;0.90;;
28714;SDS011;15886;49.170;14.572;2023-10-31T06:54:05;1.45;;;1.15;;
28714;SDS011;15886;49.170;14.572;2023-10-31T06:56:34;1.17;;;0.88;;
28714;SDS011;15886;49.170;14.572;2023-10-31T06:59:04;2.45;;;0.80;;
28714;SDS011;15886;49.170;14.572;2023-10-31T07:01:32;0.98;;;0.50;;
28714;SDS011;15886;49.170;14.572;2023-10-31T07:04:00;0.60;;;0.57;;
28714;SDS011;15886;49.170;14.572;2023-10-31T07:06:29;2.17;;;0.40;;
28714;SDS011;15886;49.170;14.572;2023-10-31T07:08:57;0.63;;;0.40;;
28714;SDS011;15886;49.170;14.572;2023-10-31T07:11:27;1.58;;;0.47;;
28714;SDS011;15886;49.170;14.572;2023-10-31T07:14:01;0.95;;;0.30;;
28714;SDS011;15886;49.170;14.572;2023-10-31T07:16:31;0.65;;;0.20;;
28714;SDS011;15886;49.170;14.572;2023-10-31T07:19:00;0.80;;;0.30;;
28714;SDS011;15886;49.170;14.572;2023-10-31T07:21:28;2.33;;;0.45;;
28714;SDS011;15886;49.170;14.572;2023-10-31T07:23:59;0.22;;;0.20;;
28714;SDS011;15886;49.170;14.572;2023-10-31T07:26:27;0.63;;;0.30;;
28714;SDS011;15886;49.170;14.572;2023-10-31T07:28:58;0.20;;;0.20;;
28714;SDS011;15886;49.170;14.572;2023-10-31T07:31:27;0.60;;;0.30;;
28714;SDS011;15886;49.170;14.572;2023-10-31T07:33:55;0.20;;;0.20;;
28714;SDS011;15886;49.170;14.572;2023-10-31T07:36:25;0.25;;;0.20;;
28714;SDS011;15886;49.170;14.572;2023-10-31T07:38:53;0.80;;;0.47;;
28714;SDS011;15886;49.170;14.572;2023-10-31T07:41:23;0.63;;;0.22;;
28714;SDS011;15886;49.170;14.572;2023-10-31T07:43:52;0.28;;;0.28;;
28714;SDS011;15886;49.170;14.572;2023-10-31T07:46:20;1.13;;;0.40;;
28714;SDS011;15886;49.170;14.572;2023-10-31T07:48:49;0.30;;;0.22;;
28714;SDS011;15886;49.170;14.572;2023-10-31T07:51:18;0.20;;;0.20;;
28714;SDS011;15886;49.170;14.572;2023-10-31T07:53:46;0.98;;;0.40;;
28714;SDS011;15886;49.170;14.572;2023-10-31T07:56:18;2.15;;;0.25;;
28714;SDS011;15886;49.170;14.572;2023-10-31T07:58:50;0.25;;;0.22;;
28714;SDS011;15886;49.170;14.572;2023-10-31T08:01:18;0.95;;;0.40;;
28714;SDS011;15886;49.170;14.572;2023-10-31T08:03:49;0.20;;;0.20;;
28714;SDS011;15886;49.170;14.572;2023-10-31T08:06:17;0.60;;;0.30;;
28714;SDS011;15886;49.170;14.572;2023-10-31T08:08:47;0.35;;;0.20;;
28714;SDS011;15886;49.170;14.572;2023-10-31T08:11:16;0.40;;;0.30;;
28714;SDS011;15886;49.170;14.572;2023-10-31T08:13:44;1.38;;;0.40;;
28714;SDS011;15886;49.170;14.572;2023-10-31T08:16:17;0.43;;;0.25;;
28714;SDS011;15886;49.170;14.572;2023-10-31T08:18:46;0.20;;;0.20;;
28714;SDS011;15886;49.170;14.572;2023-10-31T08:21:15;1.17;;;0.20;;
28714;SDS011;15886;49.170;14.572;2023-10-31T08:23:44;0.93;;;0.50;;
28714;SDS011;15886;49.170;14.572;2023-10-31T08:26:14;0.77;;;0.43;;
28714;SDS011;15886;49.170;14.572;2023-10-31T08:28:42;1.67;;;0.43;;
28714;SDS011;15886;49.170;14.572;2023-10-31T08:31:14;0.20;;;0.20;;
28714;SDS011;15886;49.170;14.572;2023-10-31T08:33:42;1.10;;;0.40;;
28714;SDS011;15886;49.170;14.572;2023-10-31T08:36:12;0.20;;;0.20;;
28714;SDS011;15886;49.170;14.572;2023-10-31T08:38:41;0.35;;;0.35;;
28714;SDS011;15886;49.170;14.572;2023-10-31T08:41:11;0.30;;;0.22;;
28714;SDS011;15886;49.170;14.572;2023-10-31T08:43:46;0.30;;;0.30;;
28714;SDS011;15886;49.170;14.572;2023-10-31T08:46:15;2.63;;;0.40;;
28714;SDS011;15886;49.170;14.572;2023-10-31T08:48:46;0.52;;;0.30;;
28714;SDS011;15886;49.170;14.572;2023-10-31T08:51:15;0.60;;;0.40;;
28714;SDS011;15886;49.170;14.572;2023-10-31T08:53:47;0.98;;;0.40;;
28714;SDS011;15886;49.170;14.572;2023-10-31T08:56:15;2.90;;;0.40;;
28714;SDS011;15886;49.170;14.572;2023-10-31T08:58:43;0.38;;;0.30;;
28714;SDS011;15886;49.170;14.572;2023-10-31T09:01:12;0.95;;;0.40;;
28714;SDS011;15886;49.170;14.572;2023-10-31T09:03:41;0.30;;;0.30;;
28714;SDS011;15886;49.170;14.572;2023-10-31T09:06:10;0.95;;;0.50;;
28714;SDS011;15886;49.170;14.572;2023-10-31T09:08:38;0.40;;;0.30;;
28714;SDS011;15886;49.170;14.572;2023-10-31T09:11:06;1.30;;;0.22;;
28714;SDS011;15886;49.170;14.572;2023-10-31T09:13:34;0.98;;;0.63;;
28714;SDS011;15886;49.170;14.572;2023-10-31T09:16:05;0.70;;;0.60;;
28714;SDS011;15886;49.170;14.572;2023-10-31T09:18:33;0.50;;;0.47;;
28714;SDS011;15886;49.170;14.572;2023-10-31T09:21:03;0.50;;;0.40;;
28714;SDS011;15886;49.170;14.572;2023-10-31T09:23:31;1.05;;;0.45;;
28714;SDS011;15886;49.170;14.572;2023-10-31T09:26:00;0.60;;;0.50;;
28714;SDS011;15886;49.170;14.572;2023-10-31T09:28:35;3.85;;;0.40;;
28714;SDS011;15886;49.170;14.572;2023-10-31T09:31:06;6.55;;;0.68;;
28714;SDS011;15886;49.170;14.572;2023-10-31T09:33:38;0.75;;;0.30;;
28714;SDS011;15886;49.170;14.572;2023-10-31T09:36:07;0.68;;;0.68;;
28714;SDS011;15886;49.170;14.572;2023-10-31T09:38:36;1.70;;;0.40;;
28714;SDS011;15886;49.170;14.572;2023-10-31T09:41:05;0.65;;;0.50;;
28714;SDS011;15886;49.170;14.572;2023-10-31T09:43:34;0.75;;;0.32;;
28714;SDS011;15886;49.170;14.572;2023-10-31T09:46:02;0.85;;;0.32;;
28714;SDS011;15886;49.170;14.572;2023-10-31T09:48:31;1.70;;;0.68;;
28714;SDS011;15886;49.170;14.572;2023-10-31T09:51:00;0.95;;;0.47;;
28714;SDS011;15886;49.170;14.572;2023-10-31T09:53:30;0.43;;;0.40;;
28714;SDS011;15886;49.170;14.572;2023-10-31T09:55:59;0.38;;;0.30;;
28714;SDS011;15886;49.170;14.572;2023-10-31T09:58:28;0.80;;;0.38;;
28714;SDS011;15886;49.170;14.572;2023-10-31T10:00:58;0.30;;;0.30;;
28714;SDS011;15886;49.170;14.572;2023-10-31T10:03:27;0.30;;;0.30;;
28714;SDS011;15886;49.170;14.572;2023-10-31T10:05:55;2.92;;;0.50;;
28714;SDS011;15886;49.170;14.572;2023-10-31T10:08:24;0.43;;;0.40;;
28714;SDS011;15886;49.170;14.572;2023-10-31T10:10:54;0.40;;;0.30;;
28714;SDS011;15886;49.170;14.572;2023-10-31T10:13:22;0.50;;;0.40;;
28714;SDS011;15886;49.170;14.572;2023-10-31T10:18:25;1.25;;;0.60;;
28714;SDS011;15886;49.170;14.572;2023-10-31T10:20:57;1.60;;;0.30;;
28714;SDS011;15886;49.170;14.572;2023-10-31T10:23:26;2.42;;;0.68;;
28714;SDS011;15886;49.170;14.572;2023-10-31T10:25:56;0.57;;;0.43;;
28714;SDS011;15886;49.170;14.572;2023-10-31T10:28:26;0.68;;;0.52;;
28714;SDS011;15886;49.170;14.572;2023-10-31T10:30:56;0.22;;;0.22;;
28714;SDS011;15886;49.170;14.572;2023-10-31T10:33:26;0.68;;;0.30;;
28714;SDS011;15886;49.170;14.572;2023-10-31T10:35:54;0.70;;;0.40;;
28714;SDS011;15886;49.170;14.572;2023-10-31T10:38:23;0.85;;;0.45;;
28714;SDS011;15886;49.170;14.572;2023-10-31T10:40:51;1.65;;;0.60;;
28714;SDS011;15886;49.170;14.572;2023-10-31T10:43:23;1.88;;;0.70;;
28714;SDS011;15886;49.170;14.572;2023-10-31T10:45:58;0.65;;;0.40;;
28714;SDS011;15886;49.170;14.572;2023-10-31T10:48:28;0.73;;;0.45;;
28714;SDS011;15886;49.170;14.572;2023-10-31T10:53:50;0.77;;;0.32;;
28714;SDS011;15886;49.170;14.572;2023-10-31T10:56:26;0.32;;;0.30;;
28714;SDS011;15886;49.170;14.572;2023-10-31T10:58:55;0.40;;;0.40;;
28714;SDS011;15886;49.170;14.572;2023-10-31T11:01:26;2.95;;;0.43;;
28714;SDS011;15886;49.170;14.572;2023-10-31T11:03:55;0.40;;;0.35;;
28714;SDS011;15886;49.170;14.572;2023-10-31T11:06:23;0.32;;;0.30;;
28714;SDS011;15886;49.170;14.572;2023-10-31T11:08:51;1.02;;;0.40;;
28714;SDS011;15886;49.170;14.572;2023-10-31T11:11:22;0.85;;;0.40;;
28714;SDS011;15886;49.170;14.572;2023-10-31T11:13:50;0.70;;;0.50;;
28714;SDS011;15886;49.170;14.572;2023-10-31T11:16:41;0.98;;;0.38;;
28714;SDS011;15886;49.170;14.572;2023-10-31T11:19:08;0.93;;;0.60;;
28714;SDS011;15886;49.170;14.572;2023-10-31T11:21:41;2.22;;;0.75;;
28714;SDS011;15886;49.170;14.572;2023-10-31T11:24:21;1.00;;;0.57;;
28714;SDS011;15886;49.170;14.572;2023-10-31T11:26:53;3.55;;;0.57;;
28714;SDS011;15886;49.170;14.572;2023-10-31T11:29:21;2.22;;;0.43;;
28714;SDS011;15886;49.170;14.572;2023-10-31T11:31:50;1.42;;;0.60;;
28714;SDS011;15886;49.170;14.572;2023-10-31T11:34:19;0.90;;;0.60;;
28714;SDS011;15886;49.170;14.572;2023-10-31T11:36:50;0.80;;;0.60;;
28714;SDS011;15886;49.170;14.572;2023-10-31T11:39:20;1.55;;;0.85;;
28714;SDS011;15886;49.170;14.572;2023-10-31T11:41:53;1.95;;;0.60;;
28714;SDS011;15886;49.170;14.572;2023-10-31T11:44:26;0.52;;;0.52;;
28714;SDS011;15886;49.170;14.572;2023-10-31T11:46:58;0.82;;;0.50;;
28714;SDS011;15886;49.170;14.572;2023-10-31T11:49:45;0.80;;;0.57;;
28714;SDS011;15886;49.170;14.572;2023-10-31T11:52:19;0.47;;;0.47;;
28714;SDS011;15886;49.170;14.572;2023-10-31T11:54:47;0.32;;;0.32;;
28714;SDS011;15886;49.170;14.572;2023-10-31T11:57:28;1.40;;;0.75;;
28714;SDS011;15886;49.170;14.572;2023-10-31T11:59:59;1.10;;;0.45;;
28714;SDS011;15886;49.170;14.572;2023-10-31T12:02:29;0.28;;;0.28;;
28714;SDS011;15886;49.170;14.572;2023-10-31T12:05:10;1.25;;;0.60;;
28714;SDS011;15886;49.170;14.572;2023-10-31T12:07:45;2.13;;;0.55;;
28714;SDS011;15886;49.170;14.572;2023-10-31T12:10:16;0.38;;;0.30;;
28714;SDS011;15886;49.170;14.572;2023-10-31T12:12:50;0.73;;;0.40;;
28714;SDS011;15886;49.170;14.572;2023-10-31T12:15:19;0.63;;;0.60;;
28714;SDS011;15886;49.170;14.572;2023-10-31T12:17:47;1.40;;;0.43;;
28714;SDS011;15886;49.170;14.572;2023-10-31T12:20:16;0.47;;;0.40;;
28714;SDS011;15886;49.170;14.572;2023-10-31T12:22:44;1.05;;;0.60;;
28714;SDS011;15886;49.170;14.572;2023-10-31T12:25:12;1.33;;;0.50;;
28714;SDS011;15886;49.170;14.572;2023-10-31T12:27:41;1.27;;;0.70;;
28714;SDS011;15886;49.170;14.572;2023-10-31T12:30:11;0.63;;;0.50;;
28714;SDS011;15886;49.170;14.572;2023-10-31T12:32:41;4.00;;;0.70;;
28714;SDS011;15886;49.170;14.572;2023-10-31T12:35:10;0.63;;;0.50;;
28714;SDS011;15886;49.170;14.572;2023-10-31T12:37:46;0.47;;;0.43;;
28714;SDS011;15886;49.170;14.572;2023-10-31T12:40:16;1.00;;;0.70;;
28714;SDS011;15886;49.170;14.572;2023-10-31T12:42:47;0.40;;;0.30;;
28714;SDS011;15886;49.170;14.572;2023-10-31T12:45:17;2.63;;;0.50;;
28714;SDS011;15886;49.170;14.572;2023-10-31T12:47:59;2.50;;;0.65;;
28714;SDS011;15886;49.170;14.572;2023-10-31T12:50:29;1.02;;;0.40;;
28714;SDS011;15886;49.170;14.572;2023-10-31T12:52:59;0.88;;;0.55;;
28714;SDS011;15886;49.170;14.572;2023-10-31T12:55:28;1.35;;;0.50;;
28714;SDS011;15886;49.170;14.572;2023-10-31T12:57:56;0.57;;;0.40;;
28714;SDS011;15886;49.170;14.572;2023-10-31T13:00:33;1.23;;;0.60;;
28714;SDS011;15886;49.170;14.572;2023-10-31T13:03:04;3.20;;;0.70;;
28714;SDS011;15886;49.170;14.572;2023-10-31T13:05:35;1.35;;;0.60;;
28714;SDS011;15886;49.170;14.572;2023-10-31T13:08:03;1.20;;;0.70;;
28714;SDS011;15886;49.170;14.572;2023-10-31T13:10:33;1.20;;;0.43;;
28714;SDS011;15886;49.170;14.572;2023-10-31T13:13:01;0.75;;;0.50;;
28714;SDS011;15886;49.170;14.572;2023-10-31T13:15:34;1.20;;;0.60;;
28714;SDS011;15886;49.170;14.572;2023-10-31T13:18:04;1.30;;;0.60;;
28714;SDS011;15886;49.170;14.572;2023-10-31T13:20:32;1.75;;;0.60;;
28714;SDS011;15886;49.170;14.572;2023-10-31T13:23:00;2.35;;;0.98;;
28714;SDS011;15886;49.170;14.572;2023-10-31T13:25:31;0.70;;;0.60;;
28714;SDS011;15886;49.170;14.572;2023-10-31T13:27:59;1.45;;;0.68;;
28714;SDS011;15886;49.170;14.572;2023-10-31T13:30:28;1.13;;;0.70;;
28714;SDS011;15886;49.170;14.572;2023-10-31T13:32:56;1.02;;;0.93;;
28714;SDS011;15886;49.170;14.572;2023-10-31T13:35:26;1.30;;;0.70;;
28714;SDS011;15886;49.170;14.572;2023-10-31T13:37:56;1.63;;;0.90;;
28714;SDS011;15886;49.170;14.572;2023-10-31T13:40:27;1.67;;;0.90;;
28714;SDS011;15886;49.170;14.572;2023-10-31T13:42:55;0.88;;;0.60;;
28714;SDS011;15886;49.170;14.572;2023-10-31T13:45:23;1.33;;;0.75;;
28714;SDS011;15886;49.170;14.572;2023-10-31T13:47:51;0.85;;;0.77;;
28714;SDS011;15886;49.170;14.572;2023-10-31T13:50:21;0.90;;;0.82;;
28714;SDS011;15886;49.170;14.572;2023-10-31T13:52:51;1.00;;;0.70;;
28714;SDS011;15886;49.170;14.572;2023-10-31T13:55:19;1.02;;;0.55;;
28714;SDS011;15886;49.170;14.572;2023-10-31T13:57:50;1.73;;;0.70;;
28714;SDS011;15886;49.170;14.572;2023-10-31T14:00:18;0.45;;;0.38;;
28714;SDS011;15886;49.170;14.572;2023-10-31T14:02:46;2.47;;;0.93;;
28714;SDS011;15886;49.170;14.572;2023-10-31T14:07:52;1.23;;;0.80;;
28714;SDS011;15886;49.170;14.572;2023-10-31T14:10:21;1.60;;;0.80;;
28714;SDS011;15886;49.170;14.572;2023-10-31T14:12:50;2.05;;;0.82;;
28714;SDS011;15886;49.170;14.572;2023-10-31T14:15:22;1.08;;;0.65;;
28714;SDS011;15886;49.170;14.572;2023-10-31T14:17:50;1.77;;;0.73;;
28714;SDS011;15886;49.170;14.572;2023-10-31T14:20:19;2.35;;;0.80;;
28714;SDS011;15886;49.170;14.572;2023-10-31T14:22:49;1.50;;;0.70;;
28714;SDS011;15886;49.170;14.572;2023-10-31T14:25:18;1.10;;;0.68;;
28714;SDS011;15886;49.170;14.572;2023-10-31T14:27:51;0.80;;;0.60;;
28714;SDS011;15886;49.170;14.572;2023-10-31T14:30:19;1.58;;;0.82;;
28714;SDS011;15886;49.170;14.572;2023-10-31T14:32:47;0.50;;;0.50;;
28714;SDS011;15886;49.170;14.572;2023-10-31T14:35:15;0.40;;;0.40;;
28714;SDS011;15886;49.170;14.572;2023-10-31T14:37:44;1.20;;;0.68;;
28714;SDS011;15886;49.170;14.572;2023-10-31T14:40:12;2.20;;;0.68;;
28714;SDS011;15886;49.170;14.572;2023-10-31T14:42:41;0.50;;;0.50;;
28714;SDS011;15886;49.170;14.572;2023-10-31T14:45:09;1.33;;;0.60;;
28714;SDS011;15886;49.170;14.572;2023-10-31T14:47:37;1.58;;;0.80;;
28714;SDS011;15886;49.170;14.572;2023-10-31T14:50:06;0.95;;;0.68;;
28714;SDS011;15886;49.170;14.572;2023-10-31T14:52:34;2.28;;;0.47;;
28714;SDS011;15886;49.170;14.572;2023-10-31T14:55:03;1.10;;;0.47;;
28714;SDS011;15886;49.170;14.572;2023-10-31T14:57:31;4.82;;;0.70;;
28714;SDS011;15886;49.170;14.572;2023-10-31T15:00:02;0.43;;;0.40;;
28714;SDS011;15886;49.170;14.572;2023-10-31T15:02:30;0.30;;;0.30;;
28714;SDS011;15886;49.170;14.572;2023-10-31T15:05:02;0.63;;;0.40;;